sensor_id;sensor_type;location;lat;lon;timestamp;P1;durP1;ratioP1;P2;durP2;ratioP2
14933;SDS011;7560;51.364;12.384;2022-08-14T00:00:51;14.93;;;13.32;;
14933;SDS011;7560;51.364;12.384;2022-08-14T00:05:55;18.77;;;15.20;;
14933;SDS011;7560;51.364;12.384;2022-08-14T00:11:00;16.52;;;14.02;;
14933;SDS011;7560;51.364;12.384;2022-08-14T00:16:06;15.88;;;13.35;;
14933;SDS011;7560;51.364;12.384;2022-08-14T00:21:08;15.77;;;12.85;;
14933;SDS011;7560;51.364;12.384;2022-08-14T00:26:11;16.15;;;13.75;;
14933;SDS011;7560;51.364;12.384;2022-08-14T00:31:23;17.30;;;13.43;;
14933;SDS011;7560;51.364;12.384;2022-08-14T00:36:44;17.13;;;14.48;;
14933;SDS011;7560;51.364;12.384;2022-08-14T00:41:49;17.90;;;14.38;;
14933;SDS011;7560;51.364;12.384;2022-08-14T00:46:52;15.00;;;13.38;;
14933;SDS011;7560;51.364;12.384;2022-08-14T00:51:58;17.42;;;14.00;;
14933;SDS011;7560;51.364;12.384;2022-08-14T00:57:00;17.88;;;14.80;;
14933;SDS011;7560;51.364;12.384;2022-08-14T01:02:03;16.95;;;14.95;;
14933;SDS011;7560;51.364;12.384;2022-08-14T01:07:09;18.42;;;14.77;;
14933;SDS011;7560;51.364;12.384;2022-08-14T01:12:15;15.75;;;13.60;;
14933;SDS011;7560;51.364;12.384;2022-08-14T01:17:29;19.17;;;14.02;;
14933;SDS011;7560;51.364;12.384;2022-08-14T01:22:52;18.00;;;13.90;;
14933;SDS011;7560;51.364;12.384;2022-08-14T01:27:55;16.38;;;14.50;;
14933;SDS011;7560;51.364;12.384;2022-08-14T01:32:58;16.55;;;14.25;;
14933;SDS011;7560;51.364;12.384;2022-08-14T01:37:59;17.00;;;14.23;;
14933;SDS011;7560;51.364;12.384;2022-08-14T01:43:01;14.30;;;12.80;;
14933;SDS011;7560;51.364;12.384;2022-08-14T01:48:03;15.23;;;13.13;;
14933;SDS011;7560;51.364;12.384;2022-08-14T01:53:05;17.70;;;14.82;;
14933;SDS011;7560;51.364;12.384;2022-08-14T01:58:08;16.08;;;13.43;;
14933;SDS011;7560;51.364;12.384;2022-08-14T02:03:22;15.82;;;13.43;;
14933;SDS011;7560;51.364;12.384;2022-08-14T02:08:31;16.40;;;13.85;;
14933;SDS011;7560;51.364;12.384;2022-08-14T02:13:35;16.15;;;13.88;;
14933;SDS011;7560;51.364;12.384;2022-08-14T02:18:38;16.00;;;13.80;;
14933;SDS011;7560;51.364;12.384;2022-08-14T02:23:40;16.80;;;14.88;;
14933;SDS011;7560;51.364;12.384;2022-08-14T02:28:43;17.85;;;14.98;;
14933;SDS011;7560;51.364;12.384;2022-08-14T02:34:02;19.13;;;15.43;;
14933;SDS011;7560;51.364;12.384;2022-08-14T02:39:22;17.70;;;14.82;;
14933;SDS011;7560;51.364;12.384;2022-08-14T02:44:27;17.15;;;15.05;;
14933;SDS011;7560;51.364;12.384;2022-08-14T02:49:30;19.40;;;15.77;;
14933;SDS011;7560;51.364;12.384;2022-08-14T02:54:34;16.63;;;14.48;;
14933;SDS011;7560;51.364;12.384;2022-08-14T02:59:36;17.83;;;15.73;;
14933;SDS011;7560;51.364;12.384;2022-08-14T03:04:43;15.98;;;14.25;;
14933;SDS011;7560;51.364;12.384;2022-08-14T03:09:45;17.38;;;14.90;;
14933;SDS011;7560;51.364;12.384;2022-08-14T03:15:06;18.23;;;15.20;;
14933;SDS011;7560;51.364;12.384;2022-08-14T03:20:19;17.65;;;14.98;;
14933;SDS011;7560;51.364;12.384;2022-08-14T03:25:22;16.50;;;14.77;;
14933;SDS011;7560;51.364;12.384;2022-08-14T03:30:25;17.63;;;15.18;;
14933;SDS011;7560;51.364;12.384;2022-08-14T03:35:40;18.13;;;15.82;;
14933;SDS011;7560;51.364;12.384;2022-08-14T03:41:02;19.10;;;15.77;;
14933;SDS011;7560;51.364;12.384;2022-08-14T03:46:04;18.23;;;15.48;;
14933;SDS011;7560;51.364;12.384;2022-08-14T03:51:26;17.83;;;14.75;;
14933;SDS011;7560;51.364;12.384;2022-08-14T03:56:29;18.95;;;15.40;;
14933;SDS011;7560;51.364;12.384;2022-08-14T04:01:31;16.73;;;14.52;;
14933;SDS011;7560;51.364;12.384;2022-08-14T04:06:41;18.67;;;15.30;;
14933;SDS011;7560;51.364;12.384;2022-08-14T04:11:48;19.45;;;15.45;;
14933;SDS011;7560;51.364;12.384;2022-08-14T04:16:50;16.08;;;14.23;;
14933;SDS011;7560;51.364;12.384;2022-08-14T04:21:52;19.70;;;14.85;;
14933;SDS011;7560;51.364;12.384;2022-08-14T04:27:04;16.05;;;13.90;;
14933;SDS011;7560;51.364;12.384;2022-08-14T04:32:10;16.92;;;14.40;;
14933;SDS011;7560;51.364;12.384;2022-08-14T04:37:32;17.35;;;14.88;;
14933;SDS011;7560;51.364;12.384;2022-08-14T04:42:54;17.65;;;14.63;;
14933;SDS011;7560;51.364;12.384;2022-08-14T04:48:17;19.95;;;15.30;;
14933;SDS011;7560;51.364;12.384;2022-08-14T04:53:44;18.08;;;15.35;;
14933;SDS011;7560;51.364;12.384;2022-08-14T04:58:58;17.98;;;14.82;;
14933;SDS011;7560;51.364;12.384;2022-08-14T05:04:02;18.77;;;14.50;;
14933;SDS011;7560;51.364;12.384;2022-08-14T05:09:07;17.33;;;14.60;;
14933;SDS011;7560;51.364;12.384;2022-08-14T05:14:14;17.48;;;14.35;;
14933;SDS011;7560;51.364;12.384;2022-08-14T05:19:36;16.10;;;13.73;;
14933;SDS011;7560;51.364;12.384;2022-08-14T05:24:58;18.13;;;14.27;;
14933;SDS011;7560;51.364;12.384;2022-08-14T05:30:02;15.95;;;13.45;;
14933;SDS011;7560;51.364;12.384;2022-08-14T05:35:08;14.93;;;13.07;;
14933;SDS011;7560;51.364;12.384;2022-08-14T05:40:11;17.98;;;13.57;;
14933;SDS011;7560;51.364;12.384;2022-08-14T05:45:13;16.85;;;14.68;;
14933;SDS011;7560;51.364;12.384;2022-08-14T05:50:17;17.08;;;14.93;;
14933;SDS011;7560;51.364;12.384;2022-08-14T05:55:20;16.58;;;14.38;;
14933;SDS011;7560;51.364;12.384;2022-08-14T06:00:25;16.60;;;14.60;;
14933;SDS011;7560;51.364;12.384;2022-08-14T06:05:39;17.85;;;14.27;;
14933;SDS011;7560;51.364;12.384;2022-08-14T06:10:42;16.38;;;13.40;;
14933;SDS011;7560;51.364;12.384;2022-08-14T06:15:44;16.35;;;14.02;;
14933;SDS011;7560;51.364;12.384;2022-08-14T06:20:49;17.33;;;14.73;;
14933;SDS011;7560;51.364;12.384;2022-08-14T06:25:51;15.43;;;13.65;;
14933;SDS011;7560;51.364;12.384;2022-08-14T06:30:53;17.33;;;14.15;;
14933;SDS011;7560;51.364;12.384;2022-08-14T06:35:56;16.23;;;13.32;;
14933;SDS011;7560;51.364;12.384;2022-08-14T06:40:58;14.60;;;12.98;;
14933;SDS011;7560;51.364;12.384;2022-08-14T06:46:00;18.92;;;13.65;;
14933;SDS011;7560;51.364;12.384;2022-08-14T06:51:03;16.45;;;12.77;;
14933;SDS011;7560;51.364;12.384;2022-08-14T06:56:05;13.88;;;12.13;;
14933;SDS011;7560;51.364;12.384;2022-08-14T07:01:07;14.05;;;12.43;;
14933;SDS011;7560;51.364;12.384;2022-08-14T07:06:28;14.82;;;12.10;;
14933;SDS011;7560;51.364;12.384;2022-08-14T07:11:46;14.77;;;12.02;;
14933;SDS011;7560;51.364;12.384;2022-08-14T07:16:48;16.45;;;11.65;;
14933;SDS011;7560;51.364;12.384;2022-08-14T07:21:49;13.73;;;11.95;;
14933;SDS011;7560;51.364;12.384;2022-08-14T07:26:51;13.75;;;12.13;;
14933;SDS011;7560;51.364;12.384;2022-08-14T07:31:54;11.90;;;10.63;;
14933;SDS011;7560;51.364;12.384;2022-08-14T07:36:56;13.57;;;10.93;;
14933;SDS011;7560;51.364;12.384;2022-08-14T07:42:01;12.88;;;11.07;;
14933;SDS011;7560;51.364;12.384;2022-08-14T07:47:03;12.48;;;11.18;;
14933;SDS011;7560;51.364;12.384;2022-08-14T07:52:05;14.75;;;11.05;;
14933;SDS011;7560;51.364;12.384;2022-08-14T07:57:08;11.75;;;10.55;;
14933;SDS011;7560;51.364;12.384;2022-08-14T08:02:22;11.55;;;10.35;;
14933;SDS011;7560;51.364;12.384;2022-08-14T08:07:28;12.65;;;10.73;;
14933;SDS011;7560;51.364;12.384;2022-08-14T08:12:31;11.43;;;10.25;;
14933;SDS011;7560;51.364;12.384;2022-08-14T08:17:35;11.80;;;10.60;;
14933;SDS011;7560;51.364;12.384;2022-08-14T08:22:43;11.00;;;9.90;;
14933;SDS011;7560;51.364;12.384;2022-08-14T08:33:34;10.75;;;9.57;;
14933;SDS011;7560;51.364;12.384;2022-08-14T08:38:38;10.65;;;9.55;;
14933;SDS011;7560;51.364;12.384;2022-08-14T08:44:03;10.73;;;9.63;;
14933;SDS011;7560;51.364;12.384;2022-08-14T08:49:17;10.65;;;9.65;;
14933;SDS011;7560;51.364;12.384;2022-08-14T08:54:20;11.43;;;9.13;;
14933;SDS011;7560;51.364;12.384;2022-08-14T08:59:28;10.57;;;9.32;;
14933;SDS011;7560;51.364;12.384;2022-08-14T09:08:56;11.67;;;10.43;;
14933;SDS011;7560;51.364;12.384;2022-08-14T09:13:59;11.60;;;10.02;;
14933;SDS011;7560;51.364;12.384;2022-08-14T09:19:02;13.90;;;10.00;;
14933;SDS011;7560;51.364;12.384;2022-08-14T09:24:04;12.73;;;10.32;;
14933;SDS011;7560;51.364;12.384;2022-08-14T09:29:29;12.40;;;10.32;;
14933;SDS011;7560;51.364;12.384;2022-08-14T09:40:19;11.50;;;9.68;;
14933;SDS011;7560;51.364;12.384;2022-08-14T09:50:54;11.07;;;9.23;;
14933;SDS011;7560;51.364;12.384;2022-08-14T09:55:57;11.68;;;8.98;;
14933;SDS011;7560;51.364;12.384;2022-08-14T10:01:06;10.18;;;8.65;;
14933;SDS011;7560;51.364;12.384;2022-08-14T10:06:29;10.15;;;8.68;;
14933;SDS011;7560;51.364;12.384;2022-08-14T10:11:32;9.70;;;8.38;;
14933;SDS011;7560;51.364;12.384;2022-08-14T10:16:44;10.90;;;8.07;;
14933;SDS011;7560;51.364;12.384;2022-08-14T10:22:04;9.18;;;8.25;;
14933;SDS011;7560;51.364;12.384;2022-08-14T10:27:36;9.20;;;8.25;;
14933;SDS011;7560;51.364;12.384;2022-08-14T10:32:45;8.95;;;8.05;;
14933;SDS011;7560;51.364;12.384;2022-08-14T10:37:52;8.70;;;7.80;;
14933;SDS011;7560;51.364;12.384;2022-08-14T10:42:54;9.32;;;7.57;;
14933;SDS011;7560;51.364;12.384;2022-08-14T10:47:56;7.70;;;7.05;;
14933;SDS011;7560;51.364;12.384;2022-08-14T10:53:28;10.30;;;8.27;;
14933;SDS011;7560;51.364;12.384;2022-08-14T10:58:33;7.75;;;6.97;;
14933;SDS011;7560;51.364;12.384;2022-08-14T11:03:41;8.43;;;7.57;;
14933;SDS011;7560;51.364;12.384;2022-08-14T11:08:57;13.68;;;10.50;;
14933;SDS011;7560;51.364;12.384;2022-08-14T11:13:58;9.18;;;7.90;;
14933;SDS011;7560;51.364;12.384;2022-08-14T11:19:00;8.05;;;6.90;;
14933;SDS011;7560;51.364;12.384;2022-08-14T11:24:04;9.52;;;7.50;;
14933;SDS011;7560;51.364;12.384;2022-08-14T11:29:28;8.07;;;7.30;;
14933;SDS011;7560;51.364;12.384;2022-08-14T11:34:36;7.75;;;6.63;;
14933;SDS011;7560;51.364;12.384;2022-08-14T11:39:40;8.05;;;6.72;;
14933;SDS011;7560;51.364;12.384;2022-08-14T11:44:45;8.20;;;7.30;;
14933;SDS011;7560;51.364;12.384;2022-08-14T11:49:48;8.38;;;7.28;;
14933;SDS011;7560;51.364;12.384;2022-08-14T11:54:55;7.80;;;7.10;;
14933;SDS011;7560;51.364;12.384;2022-08-14T11:59:59;8.27;;;7.35;;
14933;SDS011;7560;51.364;12.384;2022-08-14T12:05:03;7.20;;;6.60;;
14933;SDS011;7560;51.364;12.384;2022-08-14T12:10:10;7.68;;;6.97;;
14933;SDS011;7560;51.364;12.384;2022-08-14T12:15:32;13.82;;;6.88;;
14933;SDS011;7560;51.364;12.384;2022-08-14T12:20:38;7.30;;;6.65;;
14933;SDS011;7560;51.364;12.384;2022-08-14T12:26:02;7.25;;;6.55;;
14933;SDS011;7560;51.364;12.384;2022-08-14T12:31:25;8.25;;;6.72;;
14933;SDS011;7560;51.364;12.384;2022-08-14T12:36:27;8.05;;;7.25;;
14933;SDS011;7560;51.364;12.384;2022-08-14T12:41:33;7.45;;;6.82;;
14933;SDS011;7560;51.364;12.384;2022-08-14T12:46:38;7.63;;;6.88;;
14933;SDS011;7560;51.364;12.384;2022-08-14T12:51:57;7.68;;;6.97;;
14933;SDS011;7560;51.364;12.384;2022-08-14T13:02:20;7.30;;;6.60;;
14933;SDS011;7560;51.364;12.384;2022-08-14T13:07:27;7.60;;;6.68;;
14933;SDS011;7560;51.364;12.384;2022-08-14T13:12:34;7.32;;;6.63;;
14933;SDS011;7560;51.364;12.384;2022-08-14T13:17:58;6.43;;;5.90;;
14933;SDS011;7560;51.364;12.384;2022-08-14T13:23:05;6.65;;;6.05;;
14933;SDS011;7560;51.364;12.384;2022-08-14T13:28:10;7.55;;;6.70;;
14933;SDS011;7560;51.364;12.384;2022-08-14T13:33:34;7.60;;;5.95;;
14933;SDS011;7560;51.364;12.384;2022-08-14T13:38:36;7.63;;;6.60;;
14933;SDS011;7560;51.364;12.384;2022-08-14T13:43:42;7.60;;;6.90;;
14933;SDS011;7560;51.364;12.384;2022-08-14T13:49:00;7.65;;;6.95;;
14933;SDS011;7560;51.364;12.384;2022-08-14T13:54:02;11.10;;;6.65;;
14933;SDS011;7560;51.364;12.384;2022-08-14T13:59:11;6.57;;;5.97;;
14933;SDS011;7560;51.364;12.384;2022-08-14T14:04:28;7.13;;;6.43;;
14933;SDS011;7560;51.364;12.384;2022-08-14T14:09:32;7.28;;;6.53;;
14933;SDS011;7560;51.364;12.384;2022-08-14T14:14:51;7.75;;;6.63;;
14933;SDS011;7560;51.364;12.384;2022-08-14T14:19:54;10.30;;;7.25;;
14933;SDS011;7560;51.364;12.384;2022-08-14T14:24:57;7.88;;;6.78;;
14933;SDS011;7560;51.364;12.384;2022-08-14T14:30:00;7.55;;;6.55;;
14933;SDS011;7560;51.364;12.384;2022-08-14T14:35:03;6.90;;;6.22;;
14933;SDS011;7560;51.364;12.384;2022-08-14T14:40:07;6.78;;;6.18;;
14933;SDS011;7560;51.364;12.384;2022-08-14T14:45:35;6.50;;;5.90;;
14933;SDS011;7560;51.364;12.384;2022-08-14T14:50:38;8.68;;;6.53;;
14933;SDS011;7560;51.364;12.384;2022-08-14T14:55:41;6.85;;;6.22;;
14933;SDS011;7560;51.364;12.384;2022-08-14T15:01:05;7.65;;;6.10;;
14933;SDS011;7560;51.364;12.384;2022-08-14T15:06:10;7.00;;;6.25;;
14933;SDS011;7560;51.364;12.384;2022-08-14T15:11:18;6.85;;;6.25;;
14933;SDS011;7560;51.364;12.384;2022-08-14T15:16:20;8.15;;;6.25;;
14933;SDS011;7560;51.364;12.384;2022-08-14T15:21:25;7.43;;;6.72;;
14933;SDS011;7560;51.364;12.384;2022-08-14T15:26:27;6.63;;;6.07;;
14933;SDS011;7560;51.364;12.384;2022-08-14T15:31:34;7.13;;;6.50;;
14933;SDS011;7560;51.364;12.384;2022-08-14T15:36:37;7.85;;;7.05;;
14933;SDS011;7560;51.364;12.384;2022-08-14T15:41:42;9.02;;;6.57;;
14933;SDS011;7560;51.364;12.384;2022-08-14T15:46:45;8.32;;;7.43;;
14933;SDS011;7560;51.364;12.384;2022-08-14T15:51:47;8.13;;;7.28;;
14933;SDS011;7560;51.364;12.384;2022-08-14T15:56:57;7.40;;;6.80;;
14933;SDS011;7560;51.364;12.384;2022-08-14T16:02:03;7.60;;;6.80;;
14933;SDS011;7560;51.364;12.384;2022-08-14T16:07:09;8.40;;;7.70;;
14933;SDS011;7560;51.364;12.384;2022-08-14T16:12:12;7.75;;;7.05;;
14933;SDS011;7560;51.364;12.384;2022-08-14T16:17:14;8.15;;;7.40;;
14933;SDS011;7560;51.364;12.384;2022-08-14T16:22:17;7.90;;;7.10;;
14933;SDS011;7560;51.364;12.384;2022-08-14T16:27:39;8.27;;;7.45;;
14933;SDS011;7560;51.364;12.384;2022-08-14T16:32:43;8.05;;;7.25;;
14933;SDS011;7560;51.364;12.384;2022-08-14T16:37:56;7.93;;;7.13;;
14933;SDS011;7560;51.364;12.384;2022-08-14T16:43:01;7.60;;;6.90;;
14933;SDS011;7560;51.364;12.384;2022-08-14T16:48:13;7.88;;;7.18;;
14933;SDS011;7560;51.364;12.384;2022-08-14T16:53:35;7.40;;;6.70;;
14933;SDS011;7560;51.364;12.384;2022-08-14T16:58:37;7.78;;;6.97;;
14933;SDS011;7560;51.364;12.384;2022-08-14T17:03:49;7.38;;;6.68;;
14933;SDS011;7560;51.364;12.384;2022-08-14T17:20:03;9.50;;;6.80;;
14933;SDS011;7560;51.364;12.384;2022-08-14T17:25:36;7.68;;;7.03;;
14933;SDS011;7560;51.364;12.384;2022-08-14T17:30:55;9.30;;;7.35;;
14933;SDS011;7560;51.364;12.384;2022-08-14T17:36:15;7.88;;;7.07;;
14933;SDS011;7560;51.364;12.384;2022-08-14T17:41:25;7.68;;;6.95;;
14933;SDS011;7560;51.364;12.384;2022-08-14T17:46:41;8.68;;;7.70;;
14933;SDS011;7560;51.364;12.384;2022-08-14T17:51:59;9.50;;;8.25;;
14933;SDS011;7560;51.364;12.384;2022-08-14T17:57:18;10.25;;;8.00;;
14933;SDS011;7560;51.364;12.384;2022-08-14T18:02:28;9.18;;;8.23;;
14933;SDS011;7560;51.364;12.384;2022-08-14T18:07:31;8.75;;;7.70;;
14933;SDS011;7560;51.364;12.384;2022-08-14T18:12:54;9.32;;;8.05;;
14933;SDS011;7560;51.364;12.384;2022-08-14T18:17:57;9.50;;;8.48;;
14933;SDS011;7560;51.364;12.384;2022-08-14T18:23:00;9.23;;;8.13;;
14933;SDS011;7560;51.364;12.384;2022-08-14T18:28:07;9.82;;;8.52;;
14933;SDS011;7560;51.364;12.384;2022-08-14T18:33:32;9.07;;;8.18;;
14933;SDS011;7560;51.364;12.384;2022-08-14T18:38:42;9.73;;;8.52;;
14933;SDS011;7560;51.364;12.384;2022-08-14T18:44:00;9.25;;;8.32;;
14933;SDS011;7560;51.364;12.384;2022-08-14T18:49:12;9.73;;;8.57;;
14933;SDS011;7560;51.364;12.384;2022-08-14T18:54:26;14.45;;;8.65;;
14933;SDS011;7560;51.364;12.384;2022-08-14T18:59:34;10.25;;;8.90;;
14933;SDS011;7560;51.364;12.384;2022-08-14T19:04:43;10.30;;;8.98;;
14933;SDS011;7560;51.364;12.384;2022-08-14T19:10:06;16.30;;;11.32;;
14933;SDS011;7560;51.364;12.384;2022-08-14T19:15:08;9.80;;;8.80;;
14933;SDS011;7560;51.364;12.384;2022-08-14T19:20:13;10.20;;;9.20;;
14933;SDS011;7560;51.364;12.384;2022-08-14T19:36:49;10.88;;;9.23;;
14933;SDS011;7560;51.364;12.384;2022-08-14T19:42:08;10.57;;;9.48;;
14933;SDS011;7560;51.364;12.384;2022-08-14T19:47:35;10.93;;;9.43;;
14933;SDS011;7560;51.364;12.384;2022-08-14T19:52:41;10.10;;;9.00;;
14933;SDS011;7560;51.364;12.384;2022-08-14T19:57:46;11.43;;;10.13;;
14933;SDS011;7560;51.364;12.384;2022-08-14T20:03:00;12.40;;;9.80;;
14933;SDS011;7560;51.364;12.384;2022-08-14T20:08:13;10.60;;;9.43;;
14933;SDS011;7560;51.364;12.384;2022-08-14T20:13:35;11.30;;;9.35;;
14933;SDS011;7560;51.364;12.384;2022-08-14T20:18:40;12.20;;;10.13;;
14933;SDS011;7560;51.364;12.384;2022-08-14T20:29:31;10.38;;;8.90;;
14933;SDS011;7560;51.364;12.384;2022-08-14T20:34:40;12.23;;;9.77;;
14933;SDS011;7560;51.364;12.384;2022-08-14T20:39:51;11.05;;;9.57;;
14933;SDS011;7560;51.364;12.384;2022-08-14T20:44:59;10.82;;;9.52;;
14933;SDS011;7560;51.364;12.384;2022-08-14T20:50:22;10.63;;;8.93;;
14933;SDS011;7560;51.364;12.384;2022-08-14T20:55:29;10.27;;;9.18;;
14933;SDS011;7560;51.364;12.384;2022-08-14T21:00:37;10.73;;;8.80;;
14933;SDS011;7560;51.364;12.384;2022-08-14T21:05:53;10.48;;;9.48;;
14933;SDS011;7560;51.364;12.384;2022-08-14T21:11:21;11.63;;;9.20;;
14933;SDS011;7560;51.364;12.384;2022-08-14T21:16:24;10.60;;;9.50;;
14933;SDS011;7560;51.364;12.384;2022-08-14T21:21:37;11.75;;;9.40;;
14933;SDS011;7560;51.364;12.384;2022-08-14T21:26:42;10.63;;;9.07;;
14933;SDS011;7560;51.364;12.384;2022-08-14T21:32:02;11.70;;;9.85;;
14933;SDS011;7560;51.364;12.384;2022-08-14T21:37:21;10.15;;;9.15;;
14933;SDS011;7560;51.364;12.384;2022-08-14T21:42:23;11.77;;;9.73;;
14933;SDS011;7560;51.364;12.384;2022-08-14T21:47:28;12.65;;;10.02;;
14933;SDS011;7560;51.364;12.384;2022-08-14T21:52:30;10.55;;;9.55;;
14933;SDS011;7560;51.364;12.384;2022-08-14T21:57:52;12.80;;;10.02;;
14933;SDS011;7560;51.364;12.384;2022-08-14T22:03:16;13.93;;;10.55;;
14933;SDS011;7560;51.364;12.384;2022-08-14T22:08:25;11.88;;;9.60;;
14933;SDS011;7560;51.364;12.384;2022-08-14T22:13:27;11.50;;;10.40;;
14933;SDS011;7560;51.364;12.384;2022-08-14T22:18:32;10.77;;;9.77;;
14933;SDS011;7560;51.364;12.384;2022-08-14T22:23:36;11.38;;;9.93;;
14933;SDS011;7560;51.364;12.384;2022-08-14T22:28:40;11.98;;;10.07;;
14933;SDS011;7560;51.364;12.384;2022-08-14T22:33:45;11.48;;;10.27;;
14933;SDS011;7560;51.364;12.384;2022-08-14T22:38:58;11.15;;;9.48;;
14933;SDS011;7560;51.364;12.384;2022-08-14T22:44:02;11.88;;;9.95;;
14933;SDS011;7560;51.364;12.384;2022-08-14T22:49:12;10.95;;;9.85;;
14933;SDS011;7560;51.364;12.384;2022-08-14T22:54:34;11.68;;;10.48;;
14933;SDS011;7560;51.364;12.384;2022-08-14T22:59:53;12.30;;;9.93;;
14933;SDS011;7560;51.364;12.384;2022-08-14T23:04:55;11.57;;;10.20;;
14933;SDS011;7560;51.364;12.384;2022-08-14T23:09:58;11.30;;;10.15;;
14933;SDS011;7560;51.364;12.384;2022-08-14T23:15:21;12.35;;;10.32;;
14933;SDS011;7560;51.364;12.384;2022-08-14T23:20:29;11.35;;;10.10;;
14933;SDS011;7560;51.364;12.384;2022-08-14T23:25:37;11.77;;;10.13;;
14933;SDS011;7560;51.364;12.384;2022-08-14T23:31:00;11.57;;;10.18;;
14933;SDS011;7560;51.364;12.384;2022-08-14T23:36:06;11.77;;;10.57;;
14933;SDS011;7560;51.364;12.384;2022-08-14T23:41:28;12.95;;;10.45;;
14933;SDS011;7560;51.364;12.384;2022-08-14T23:46:50;11.00;;;9.88;;
14933;SDS011;7560;51.364;12.384;2022-08-14T23:52:00;11.70;;;10.32;;
14933;SDS011;7560;51.364;12.384;2022-08-14T23:57:22;11.88;;;10.63;;
